sensor_id;sensor_type;location;lat;lon;timestamp;P1;durP1;ratioP1;P2;durP2;ratioP2
9970;SDS011;5026;51.494;11.974;2023-10-19T00:00:48;17.10;;;12.47;;
9970;SDS011;5026;51.494;11.974;2023-10-19T00:03:15;21.93;;;12.03;;
9970;SDS011;5026;51.494;11.974;2023-10-19T00:05:44;19.77;;;12.80;;
9970;SDS011;5026;51.494;11.974;2023-10-19T00:08:12;15.47;;;11.93;;
9970;SDS011;5026;51.494;11.974;2023-10-19T00:10:45;17.50;;;12.33;;
9970;SDS011;5026;51.494;11.974;2023-10-19T00:13:15;19.63;;;11.87;;
9970;SDS011;5026;51.494;11.974;2023-10-19T00:15:44;21.37;;;12.13;;
9970;SDS011;5026;51.494;11.974;2023-10-19T00:18:13;19.50;;;13.00;;
9970;SDS011;5026;51.494;11.974;2023-10-19T00:20:50;18.50;;;12.87;;
9970;SDS011;5026;51.494;11.974;2023-10-19T00:23:18;18.60;;;12.40;;
9970;SDS011;5026;51.494;11.974;2023-10-19T00:25:54;15.93;;;11.53;;
9970;SDS011;5026;51.494;11.974;2023-10-19T00:28:21;18.93;;;12.47;;
9970;SDS011;5026;51.494;11.974;2023-10-19T00:30:50;18.97;;;12.03;;
9970;SDS011;5026;51.494;11.974;2023-10-19T00:33:18;18.57;;;12.50;;
9970;SDS011;5026;51.494;11.974;2023-10-19T00:35:47;17.97;;;12.63;;
9970;SDS011;5026;51.494;11.974;2023-10-19T00:38:27;19.27;;;12.60;;
9970;SDS011;5026;51.494;11.974;2023-10-19T00:41:04;19.00;;;12.53;;
9970;SDS011;5026;51.494;11.974;2023-10-19T00:43:32;18.07;;;12.13;;
9970;SDS011;5026;51.494;11.974;2023-10-19T00:46:01;19.73;;;12.73;;
9970;SDS011;5026;51.494;11.974;2023-10-19T00:48:30;17.57;;;12.53;;
9970;SDS011;5026;51.494;11.974;2023-10-19T00:50:59;18.27;;;11.93;;
9970;SDS011;5026;51.494;11.974;2023-10-19T00:53:36;19.03;;;12.77;;
9970;SDS011;5026;51.494;11.974;2023-10-19T00:56:04;19.07;;;12.70;;
9970;SDS011;5026;51.494;11.974;2023-10-19T00:58:36;18.80;;;13.10;;
9970;SDS011;5026;51.494;11.974;2023-10-19T01:01:06;19.57;;;12.93;;
9970;SDS011;5026;51.494;11.974;2023-10-19T01:03:34;20.93;;;12.70;;
9970;SDS011;5026;51.494;11.974;2023-10-19T01:06:05;18.20;;;12.40;;
9970;SDS011;5026;51.494;11.974;2023-10-19T01:08:37;22.93;;;13.23;;
9970;SDS011;5026;51.494;11.974;2023-10-19T01:11:08;22.40;;;13.77;;
9970;SDS011;5026;51.494;11.974;2023-10-19T01:13:40;19.20;;;13.60;;
9970;SDS011;5026;51.494;11.974;2023-10-19T01:16:13;22.83;;;14.07;;
9970;SDS011;5026;51.494;11.974;2023-10-19T01:18:47;20.03;;;13.23;;
9970;SDS011;5026;51.494;11.974;2023-10-19T01:21:18;24.37;;;14.17;;
9970;SDS011;5026;51.494;11.974;2023-10-19T01:23:48;21.67;;;13.97;;
9970;SDS011;5026;51.494;11.974;2023-10-19T01:26:15;22.87;;;13.43;;
9970;SDS011;5026;51.494;11.974;2023-10-19T01:28:47;21.90;;;14.03;;
9970;SDS011;5026;51.494;11.974;2023-10-19T01:31:17;20.50;;;13.50;;
9970;SDS011;5026;51.494;11.974;2023-10-19T01:33:47;22.77;;;14.47;;
9970;SDS011;5026;51.494;11.974;2023-10-19T01:36:15;21.87;;;13.93;;
9970;SDS011;5026;51.494;11.974;2023-10-19T01:38:52;22.43;;;14.00;;
9970;SDS011;5026;51.494;11.974;2023-10-19T01:41:19;24.70;;;14.80;;
9970;SDS011;5026;51.494;11.974;2023-10-19T01:43:48;23.13;;;13.97;;
9970;SDS011;5026;51.494;11.974;2023-10-19T01:46:16;22.47;;;13.63;;
9970;SDS011;5026;51.494;11.974;2023-10-19T01:48:49;20.73;;;14.47;;
9970;SDS011;5026;51.494;11.974;2023-10-19T01:51:20;25.97;;;15.37;;
9970;SDS011;5026;51.494;11.974;2023-10-19T01:53:49;21.47;;;14.07;;
9970;SDS011;5026;51.494;11.974;2023-10-19T01:56:17;25.27;;;14.93;;
9970;SDS011;5026;51.494;11.974;2023-10-19T01:58:46;28.20;;;15.67;;
9970;SDS011;5026;51.494;11.974;2023-10-19T02:01:13;23.87;;;15.70;;
9970;SDS011;5026;51.494;11.974;2023-10-19T02:03:45;23.10;;;15.77;;
9970;SDS011;5026;51.494;11.974;2023-10-19T02:06:14;25.20;;;15.07;;
9970;SDS011;5026;51.494;11.974;2023-10-19T02:08:45;25.47;;;16.03;;
9970;SDS011;5026;51.494;11.974;2023-10-19T02:11:14;26.07;;;15.77;;
9970;SDS011;5026;51.494;11.974;2023-10-19T02:13:47;26.77;;;16.10;;
9970;SDS011;5026;51.494;11.974;2023-10-19T02:16:14;29.20;;;16.13;;
9970;SDS011;5026;51.494;11.974;2023-10-19T02:18:42;25.27;;;16.37;;
9970;SDS011;5026;51.494;11.974;2023-10-19T02:21:09;28.87;;;17.17;;
9970;SDS011;5026;51.494;11.974;2023-10-19T02:23:38;26.30;;;16.50;;
9970;SDS011;5026;51.494;11.974;2023-10-19T02:26:05;25.20;;;16.53;;
9970;SDS011;5026;51.494;11.974;2023-10-19T02:28:34;29.27;;;16.43;;
9970;SDS011;5026;51.494;11.974;2023-10-19T02:31:02;26.10;;;16.87;;
9970;SDS011;5026;51.494;11.974;2023-10-19T02:33:40;30.33;;;17.57;;
9970;SDS011;5026;51.494;11.974;2023-10-19T02:36:11;29.83;;;17.90;;
9970;SDS011;5026;51.494;11.974;2023-10-19T02:38:41;31.37;;;17.60;;
9970;SDS011;5026;51.494;11.974;2023-10-19T02:41:13;27.60;;;17.77;;
9970;SDS011;5026;51.494;11.974;2023-10-19T02:43:42;30.30;;;18.20;;
9970;SDS011;5026;51.494;11.974;2023-10-19T02:46:15;29.63;;;17.67;;
9970;SDS011;5026;51.494;11.974;2023-10-19T02:48:42;31.10;;;17.93;;
9970;SDS011;5026;51.494;11.974;2023-10-19T02:51:10;27.03;;;17.33;;
9970;SDS011;5026;51.494;11.974;2023-10-19T02:53:37;29.43;;;18.07;;
9970;SDS011;5026;51.494;11.974;2023-10-19T02:56:11;27.43;;;16.73;;
9970;SDS011;5026;51.494;11.974;2023-10-19T02:58:40;27.70;;;17.43;;
9970;SDS011;5026;51.494;11.974;2023-10-19T03:01:14;30.40;;;17.03;;
9970;SDS011;5026;51.494;11.974;2023-10-19T03:03:47;28.03;;;17.50;;
9970;SDS011;5026;51.494;11.974;2023-10-19T03:06:19;32.97;;;19.23;;
9970;SDS011;5026;51.494;11.974;2023-10-19T03:08:45;29.10;;;18.13;;
9970;SDS011;5026;51.494;11.974;2023-10-19T03:11:13;30.73;;;18.53;;
9970;SDS011;5026;51.494;11.974;2023-10-19T03:13:39;32.37;;;18.47;;
9970;SDS011;5026;51.494;11.974;2023-10-19T03:16:09;32.83;;;20.30;;
9970;SDS011;5026;51.494;11.974;2023-10-19T03:18:35;37.63;;;19.90;;
9970;SDS011;5026;51.494;11.974;2023-10-19T03:21:04;36.77;;;21.20;;
9970;SDS011;5026;51.494;11.974;2023-10-19T03:23:31;35.67;;;20.13;;
9970;SDS011;5026;51.494;11.974;2023-10-19T03:26:00;37.73;;;21.73;;
9970;SDS011;5026;51.494;11.974;2023-10-19T03:28:50;42.37;;;21.03;;
9970;SDS011;5026;51.494;11.974;2023-10-19T03:31:20;36.03;;;21.07;;
9970;SDS011;5026;51.494;11.974;2023-10-19T03:33:48;37.33;;;21.20;;
9970;SDS011;5026;51.494;11.974;2023-10-19T03:36:19;34.97;;;20.70;;
9970;SDS011;5026;51.494;11.974;2023-10-19T03:38:46;38.27;;;21.53;;
9970;SDS011;5026;51.494;11.974;2023-10-19T03:41:15;36.73;;;20.40;;
9970;SDS011;5026;51.494;11.974;2023-10-19T03:43:46;38.17;;;22.33;;
9970;SDS011;5026;51.494;11.974;2023-10-19T03:46:15;38.40;;;21.50;;
9970;SDS011;5026;51.494;11.974;2023-10-19T03:48:48;38.57;;;22.10;;
9970;SDS011;5026;51.494;11.974;2023-10-19T03:51:15;37.00;;;21.80;;
9970;SDS011;5026;51.494;11.974;2023-10-19T03:53:42;37.30;;;22.47;;
9970;SDS011;5026;51.494;11.974;2023-10-19T03:56:14;41.03;;;22.90;;
9970;SDS011;5026;51.494;11.974;2023-10-19T03:58:42;40.83;;;22.70;;
9970;SDS011;5026;51.494;11.974;2023-10-19T04:01:12;40.67;;;22.93;;
9970;SDS011;5026;51.494;11.974;2023-10-19T04:03:41;35.97;;;22.83;;
9970;SDS011;5026;51.494;11.974;2023-10-19T04:06:09;39.60;;;22.47;;
9970;SDS011;5026;51.494;11.974;2023-10-19T04:08:39;39.63;;;22.13;;
9970;SDS011;5026;51.494;11.974;2023-10-19T04:11:07;41.00;;;24.50;;
9970;SDS011;5026;51.494;11.974;2023-10-19T04:13:37;42.27;;;23.40;;
9970;SDS011;5026;51.494;11.974;2023-10-19T04:16:04;43.93;;;23.27;;
9970;SDS011;5026;51.494;11.974;2023-10-19T04:18:35;44.27;;;25.63;;
9970;SDS011;5026;51.494;11.974;2023-10-19T04:21:08;44.47;;;23.87;;
9970;SDS011;5026;51.494;11.974;2023-10-19T04:23:35;42.77;;;23.90;;
9970;SDS011;5026;51.494;11.974;2023-10-19T04:26:02;50.10;;;25.53;;
9970;SDS011;5026;51.494;11.974;2023-10-19T04:28:36;42.80;;;25.70;;
9970;SDS011;5026;51.494;11.974;2023-10-19T04:31:10;43.83;;;24.63;;
9970;SDS011;5026;51.494;11.974;2023-10-19T04:33:41;42.07;;;24.90;;
9970;SDS011;5026;51.494;11.974;2023-10-19T04:36:11;50.93;;;25.63;;
9970;SDS011;5026;51.494;11.974;2023-10-19T04:38:39;43.80;;;24.60;;
9970;SDS011;5026;51.494;11.974;2023-10-19T04:41:06;47.00;;;25.50;;
9970;SDS011;5026;51.494;11.974;2023-10-19T04:43:34;52.03;;;27.70;;
9970;SDS011;5026;51.494;11.974;2023-10-19T04:46:09;42.67;;;24.83;;
9970;SDS011;5026;51.494;11.974;2023-10-19T04:48:38;44.37;;;25.03;;
9970;SDS011;5026;51.494;11.974;2023-10-19T04:51:08;46.17;;;26.33;;
9970;SDS011;5026;51.494;11.974;2023-10-19T04:53:35;46.33;;;25.73;;
9970;SDS011;5026;51.494;11.974;2023-10-19T04:56:06;47.80;;;25.53;;
9970;SDS011;5026;51.494;11.974;2023-10-19T04:58:35;43.30;;;25.07;;
9970;SDS011;5026;51.494;11.974;2023-10-19T05:01:02;54.73;;;25.90;;
9970;SDS011;5026;51.494;11.974;2023-10-19T05:03:29;58.85;;;33.42;;
9970;SDS011;5026;51.494;11.974;2023-10-19T05:05:56;74.97;;;30.33;;
9970;SDS011;5026;51.494;11.974;2023-10-19T05:08:24;54.73;;;28.20;;
9970;SDS011;5026;51.494;11.974;2023-10-19T05:10:53;50.40;;;27.80;;
9970;SDS011;5026;51.494;11.974;2023-10-19T05:13:20;61.53;;;30.50;;
9970;SDS011;5026;51.494;11.974;2023-10-19T05:15:48;55.60;;;28.07;;
9970;SDS011;5026;51.494;11.974;2023-10-19T05:18:15;48.93;;;26.70;;
9970;SDS011;5026;51.494;11.974;2023-10-19T05:20:42;55.80;;;29.33;;
9970;SDS011;5026;51.494;11.974;2023-10-19T05:23:09;51.90;;;27.87;;
9970;SDS011;5026;51.494;11.974;2023-10-19T05:25:39;56.20;;;29.37;;
9970;SDS011;5026;51.494;11.974;2023-10-19T05:28:06;55.53;;;28.30;;
9970;SDS011;5026;51.494;11.974;2023-10-19T05:30:34;59.10;;;28.67;;
9970;SDS011;5026;51.494;11.974;2023-10-19T05:33:02;57.57;;;29.60;;
9970;SDS011;5026;51.494;11.974;2023-10-19T05:35:31;56.77;;;30.00;;
9970;SDS011;5026;51.494;11.974;2023-10-19T05:38:00;61.23;;;29.27;;
9970;SDS011;5026;51.494;11.974;2023-10-19T05:40:27;58.27;;;28.87;;
9970;SDS011;5026;51.494;11.974;2023-10-19T05:42:57;60.53;;;31.07;;
9970;SDS011;5026;51.494;11.974;2023-10-19T05:45:26;58.90;;;30.40;;
9970;SDS011;5026;51.494;11.974;2023-10-19T05:47:54;60.93;;;29.60;;
9970;SDS011;5026;51.494;11.974;2023-10-19T05:50:22;61.40;;;30.47;;
9970;SDS011;5026;51.494;11.974;2023-10-19T05:52:49;62.23;;;29.73;;
9970;SDS011;5026;51.494;11.974;2023-10-19T05:55:17;63.00;;;30.87;;
9970;SDS011;5026;51.494;11.974;2023-10-19T05:57:46;58.67;;;31.13;;
9970;SDS011;5026;51.494;11.974;2023-10-19T06:00:16;61.60;;;28.93;;
9970;SDS011;5026;51.494;11.974;2023-10-19T06:02:45;59.67;;;30.07;;
9970;SDS011;5026;51.494;11.974;2023-10-19T06:05:14;60.73;;;29.70;;
9970;SDS011;5026;51.494;11.974;2023-10-19T06:07:41;61.63;;;29.97;;
9970;SDS011;5026;51.494;11.974;2023-10-19T06:10:10;67.80;;;30.73;;
9970;SDS011;5026;51.494;11.974;2023-10-19T06:12:41;61.23;;;29.07;;
9970;SDS011;5026;51.494;11.974;2023-10-19T06:15:08;60.97;;;29.63;;
9970;SDS011;5026;51.494;11.974;2023-10-19T06:17:37;60.37;;;29.73;;
9970;SDS011;5026;51.494;11.974;2023-10-19T06:20:06;68.37;;;30.80;;
9970;SDS011;5026;51.494;11.974;2023-10-19T06:22:45;59.90;;;31.13;;
9970;SDS011;5026;51.494;11.974;2023-10-19T06:25:15;69.60;;;30.23;;
9970;SDS011;5026;51.494;11.974;2023-10-19T06:27:44;71.40;;;31.80;;
9970;SDS011;5026;51.494;11.974;2023-10-19T06:30:12;68.03;;;31.07;;
9970;SDS011;5026;51.494;11.974;2023-10-19T06:32:45;66.47;;;31.53;;
9970;SDS011;5026;51.494;11.974;2023-10-19T06:35:13;77.30;;;34.53;;
9970;SDS011;5026;51.494;11.974;2023-10-19T06:37:41;73.07;;;32.77;;
9970;SDS011;5026;51.494;11.974;2023-10-19T06:40:09;69.50;;;31.07;;
9970;SDS011;5026;51.494;11.974;2023-10-19T06:42:37;80.37;;;33.70;;
9970;SDS011;5026;51.494;11.974;2023-10-19T06:45:05;73.03;;;33.50;;
9970;SDS011;5026;51.494;11.974;2023-10-19T06:47:35;72.83;;;32.70;;
9970;SDS011;5026;51.494;11.974;2023-10-19T06:50:05;77.03;;;31.30;;
9970;SDS011;5026;51.494;11.974;2023-10-19T06:52:35;70.23;;;31.93;;
9970;SDS011;5026;51.494;11.974;2023-10-19T06:55:03;62.27;;;30.70;;
9970;SDS011;5026;51.494;11.974;2023-10-19T06:57:30;78.50;;;33.83;;
9970;SDS011;5026;51.494;11.974;2023-10-19T06:59:58;77.97;;;33.13;;
9970;SDS011;5026;51.494;11.974;2023-10-19T07:02:35;73.37;;;32.27;;
9970;SDS011;5026;51.494;11.974;2023-10-19T07:05:03;75.83;;;34.20;;
9970;SDS011;5026;51.494;11.974;2023-10-19T07:07:35;79.73;;;33.80;;
9970;SDS011;5026;51.494;11.974;2023-10-19T07:10:05;81.13;;;33.10;;
9970;SDS011;5026;51.494;11.974;2023-10-19T07:12:33;80.73;;;35.10;;
9970;SDS011;5026;51.494;11.974;2023-10-19T07:15:00;87.10;;;34.43;;
9970;SDS011;5026;51.494;11.974;2023-10-19T07:17:28;83.77;;;35.87;;
9970;SDS011;5026;51.494;11.974;2023-10-19T07:19:55;79.90;;;34.03;;
9970;SDS011;5026;51.494;11.974;2023-10-19T07:22:23;72.77;;;32.93;;
9970;SDS011;5026;51.494;11.974;2023-10-19T07:24:50;80.83;;;32.83;;
9970;SDS011;5026;51.494;11.974;2023-10-19T07:27:17;75.47;;;34.13;;
9970;SDS011;5026;51.494;11.974;2023-10-19T07:29:44;84.50;;;36.20;;
9970;SDS011;5026;51.494;11.974;2023-10-19T07:32:12;74.70;;;34.73;;
9970;SDS011;5026;51.494;11.974;2023-10-19T07:34:57;81.17;;;33.17;;
9970;SDS011;5026;51.494;11.974;2023-10-19T07:37:24;81.07;;;33.40;;
9970;SDS011;5026;51.494;11.974;2023-10-19T07:39:52;75.97;;;33.03;;
9970;SDS011;5026;51.494;11.974;2023-10-19T07:42:22;79.57;;;34.10;;
9970;SDS011;5026;51.494;11.974;2023-10-19T07:44:54;78.37;;;35.00;;
9970;SDS011;5026;51.494;11.974;2023-10-19T07:47:21;77.10;;;33.17;;
9970;SDS011;5026;51.494;11.974;2023-10-19T07:49:49;73.47;;;33.13;;
9970;SDS011;5026;51.494;11.974;2023-10-19T07:52:19;78.53;;;33.27;;
9970;SDS011;5026;51.494;11.974;2023-10-19T07:54:47;75.70;;;31.93;;
9970;SDS011;5026;51.494;11.974;2023-10-19T07:57:16;79.40;;;34.20;;
9970;SDS011;5026;51.494;11.974;2023-10-19T07:59:43;79.30;;;34.13;;
9970;SDS011;5026;51.494;11.974;2023-10-19T08:02:12;81.43;;;34.13;;
9970;SDS011;5026;51.494;11.974;2023-10-19T08:04:39;87.73;;;35.73;;
9970;SDS011;5026;51.494;11.974;2023-10-19T08:07:07;95.50;;;38.60;;
9970;SDS011;5026;51.494;11.974;2023-10-19T08:09:37;87.10;;;35.07;;
9970;SDS011;5026;51.494;11.974;2023-10-19T08:12:03;84.93;;;35.57;;
9970;SDS011;5026;51.494;11.974;2023-10-19T08:14:31;91.53;;;37.97;;
9970;SDS011;5026;51.494;11.974;2023-10-19T08:16:58;85.40;;;36.33;;
9970;SDS011;5026;51.494;11.974;2023-10-19T08:19:26;84.80;;;34.73;;
9970;SDS011;5026;51.494;11.974;2023-10-19T08:21:56;86.83;;;37.50;;
9970;SDS011;5026;51.494;11.974;2023-10-19T08:24:23;98.43;;;36.70;;
9970;SDS011;5026;51.494;11.974;2023-10-19T08:26:55;89.07;;;36.10;;
9970;SDS011;5026;51.494;11.974;2023-10-19T08:29:22;89.60;;;37.20;;
9970;SDS011;5026;51.494;11.974;2023-10-19T08:31:49;90.60;;;37.03;;
9970;SDS011;5026;51.494;11.974;2023-10-19T08:34:15;87.47;;;35.50;;
9970;SDS011;5026;51.494;11.974;2023-10-19T08:36:44;91.47;;;36.17;;
9970;SDS011;5026;51.494;11.974;2023-10-19T08:39:11;83.77;;;35.17;;
9970;SDS011;5026;51.494;11.974;2023-10-19T08:41:39;82.07;;;35.07;;
9970;SDS011;5026;51.494;11.974;2023-10-19T08:44:07;88.33;;;36.67;;
9970;SDS011;5026;51.494;11.974;2023-10-19T08:46:36;82.30;;;36.13;;
9970;SDS011;5026;51.494;11.974;2023-10-19T08:49:08;84.17;;;34.97;;
9970;SDS011;5026;51.494;11.974;2023-10-19T08:51:36;85.17;;;37.47;;
9970;SDS011;5026;51.494;11.974;2023-10-19T08:54:04;89.27;;;36.83;;
9970;SDS011;5026;51.494;11.974;2023-10-19T08:56:31;86.63;;;37.43;;
9970;SDS011;5026;51.494;11.974;2023-10-19T08:58:58;84.03;;;35.40;;
9970;SDS011;5026;51.494;11.974;2023-10-19T09:01:28;81.17;;;36.67;;
9970;SDS011;5026;51.494;11.974;2023-10-19T09:03:56;84.37;;;37.03;;
9970;SDS011;5026;51.494;11.974;2023-10-19T09:06:23;86.13;;;37.27;;
9970;SDS011;5026;51.494;11.974;2023-10-19T09:08:50;79.33;;;36.30;;
9970;SDS011;5026;51.494;11.974;2023-10-19T09:11:18;83.83;;;35.60;;
9970;SDS011;5026;51.494;11.974;2023-10-19T09:13:46;80.70;;;36.07;;
9970;SDS011;5026;51.494;11.974;2023-10-19T09:16:15;79.97;;;35.83;;
9970;SDS011;5026;51.494;11.974;2023-10-19T09:18:44;72.57;;;35.43;;
9970;SDS011;5026;51.494;11.974;2023-10-19T09:21:14;75.13;;;35.73;;
9970;SDS011;5026;51.494;11.974;2023-10-19T09:23:49;71.67;;;34.10;;
9970;SDS011;5026;51.494;11.974;2023-10-19T09:26:16;72.77;;;34.30;;
9970;SDS011;5026;51.494;11.974;2023-10-19T09:28:46;79.30;;;35.13;;
9970;SDS011;5026;51.494;11.974;2023-10-19T09:31:14;71.40;;;34.83;;
9970;SDS011;5026;51.494;11.974;2023-10-19T09:33:41;66.77;;;32.93;;
9970;SDS011;5026;51.494;11.974;2023-10-19T09:36:11;67.43;;;34.40;;
9970;SDS011;5026;51.494;11.974;2023-10-19T09:38:39;68.33;;;34.53;;
9970;SDS011;5026;51.494;11.974;2023-10-19T09:41:13;66.37;;;33.33;;
9970;SDS011;5026;51.494;11.974;2023-10-19T09:43:43;64.60;;;31.97;;
9970;SDS011;5026;51.494;11.974;2023-10-19T09:46:12;64.63;;;32.67;;
9970;SDS011;5026;51.494;11.974;2023-10-19T09:48:47;56.57;;;32.13;;
9970;SDS011;5026;51.494;11.974;2023-10-19T09:51:16;50.77;;;28.50;;
9970;SDS011;5026;51.494;11.974;2023-10-19T09:53:45;45.00;;;26.87;;
9970;SDS011;5026;51.494;11.974;2023-10-19T09:56:26;40.20;;;25.27;;
9970;SDS011;5026;51.494;11.974;2023-10-19T09:58:59;38.00;;;24.02;;
9970;SDS011;5026;51.494;11.974;2023-10-19T10:04:37;32.80;;;21.25;;
9970;SDS011;5026;51.494;11.974;2023-10-19T10:07:07;28.73;;;18.47;;
9970;SDS011;5026;51.494;11.974;2023-10-19T10:09:36;28.80;;;19.52;;
9970;SDS011;5026;51.494;11.974;2023-10-19T10:12:18;29.23;;;20.33;;
9970;SDS011;5026;51.494;11.974;2023-10-19T10:14:57;46.42;;;30.45;;
9970;SDS011;5026;51.494;11.974;2023-10-19T10:17:26;32.27;;;20.93;;
9970;SDS011;5026;51.494;11.974;2023-10-19T10:19:54;30.50;;;21.10;;
9970;SDS011;5026;51.494;11.974;2023-10-19T10:22:27;31.00;;;19.53;;
9970;SDS011;5026;51.494;11.974;2023-10-19T10:24:54;33.70;;;23.02;;
9970;SDS011;5026;51.494;11.974;2023-10-19T10:27:22;29.70;;;20.00;;
9970;SDS011;5026;51.494;11.974;2023-10-19T10:29:55;28.67;;;19.60;;
9970;SDS011;5026;51.494;11.974;2023-10-19T10:38:14;25.15;;;17.88;;
9970;SDS011;5026;51.494;11.974;2023-10-19T10:40:42;23.63;;;17.42;;
9970;SDS011;5026;51.494;11.974;2023-10-19T10:43:09;28.75;;;18.83;;
9970;SDS011;5026;51.494;11.974;2023-10-19T10:45:37;27.35;;;19.45;;
9970;SDS011;5026;51.494;11.974;2023-10-19T10:48:10;23.15;;;17.02;;
9970;SDS011;5026;51.494;11.974;2023-10-19T10:50:38;19.92;;;14.65;;
9970;SDS011;5026;51.494;11.974;2023-10-19T10:53:06;21.80;;;15.80;;
9970;SDS011;5026;51.494;11.974;2023-10-19T10:55:35;20.25;;;15.50;;
9970;SDS011;5026;51.494;11.974;2023-10-19T10:58:02;20.83;;;14.45;;
9970;SDS011;5026;51.494;11.974;2023-10-19T11:00:30;23.13;;;14.70;;
9970;SDS011;5026;51.494;11.974;2023-10-19T11:03:00;21.55;;;14.65;;
9970;SDS011;5026;51.494;11.974;2023-10-19T11:05:30;20.13;;;13.88;;
9970;SDS011;5026;51.494;11.974;2023-10-19T11:08:04;20.08;;;14.65;;
9970;SDS011;5026;51.494;11.974;2023-10-19T11:10:32;19.48;;;13.95;;
9970;SDS011;5026;51.494;11.974;2023-10-19T11:13:02;21.48;;;14.48;;
9970;SDS011;5026;51.494;11.974;2023-10-19T11:15:29;19.10;;;13.88;;
9970;SDS011;5026;51.494;11.974;2023-10-19T11:17:56;21.08;;;14.88;;
9970;SDS011;5026;51.494;11.974;2023-10-19T11:20:23;19.65;;;14.05;;
9970;SDS011;5026;51.494;11.974;2023-10-19T11:22:52;17.00;;;12.90;;
9970;SDS011;5026;51.494;11.974;2023-10-19T11:25:21;16.48;;;13.18;;
9970;SDS011;5026;51.494;11.974;2023-10-19T11:27:51;17.67;;;13.20;;
9970;SDS011;5026;51.494;11.974;2023-10-19T11:30:22;17.15;;;13.10;;
9970;SDS011;5026;51.494;11.974;2023-10-19T11:32:50;18.40;;;13.50;;
9970;SDS011;5026;51.494;11.974;2023-10-19T11:35:22;17.52;;;12.13;;
9970;SDS011;5026;51.494;11.974;2023-10-19T11:37:50;18.25;;;12.25;;
9970;SDS011;5026;51.494;11.974;2023-10-19T11:40:19;16.35;;;12.13;;
9970;SDS011;5026;51.494;11.974;2023-10-19T11:42:47;17.23;;;12.30;;
9970;SDS011;5026;51.494;11.974;2023-10-19T11:45:15;17.35;;;13.60;;
9970;SDS011;5026;51.494;11.974;2023-10-19T11:47:43;20.25;;;12.93;;
9970;SDS011;5026;51.494;11.974;2023-10-19T11:50:10;18.17;;;13.30;;
9970;SDS011;5026;51.494;11.974;2023-10-19T11:52:40;17.70;;;11.93;;
9970;SDS011;5026;51.494;11.974;2023-10-19T11:55:07;13.85;;;12.25;;
9970;SDS011;5026;51.494;11.974;2023-10-19T11:57:34;17.10;;;12.55;;
9970;SDS011;5026;51.494;11.974;2023-10-19T12:00:02;16.70;;;12.48;;
9970;SDS011;5026;51.494;11.974;2023-10-19T12:02:35;18.05;;;12.27;;
9970;SDS011;5026;51.494;11.974;2023-10-19T12:05:04;14.05;;;11.77;;
9970;SDS011;5026;51.494;11.974;2023-10-19T12:07:35;16.25;;;11.98;;
9970;SDS011;5026;51.494;11.974;2023-10-19T12:10:03;15.25;;;11.65;;
9970;SDS011;5026;51.494;11.974;2023-10-19T12:12:30;14.25;;;11.45;;
9970;SDS011;5026;51.494;11.974;2023-10-19T12:14:57;15.13;;;11.90;;
9970;SDS011;5026;51.494;11.974;2023-10-19T12:17:24;13.85;;;11.18;;
9970;SDS011;5026;51.494;11.974;2023-10-19T12:19:54;14.75;;;11.40;;
9970;SDS011;5026;51.494;11.974;2023-10-19T12:22:21;14.60;;;11.50;;
9970;SDS011;5026;51.494;11.974;2023-10-19T12:24:49;18.17;;;11.57;;
9970;SDS011;5026;51.494;11.974;2023-10-19T12:27:17;13.93;;;11.27;;
9970;SDS011;5026;51.494;11.974;2023-10-19T12:29:44;15.68;;;11.40;;
9970;SDS011;5026;51.494;11.974;2023-10-19T12:32:12;15.13;;;11.60;;
9970;SDS011;5026;51.494;11.974;2023-10-19T12:34:40;16.55;;;11.73;;
9970;SDS011;5026;51.494;11.974;2023-10-19T12:37:09;15.35;;;11.55;;
9970;SDS011;5026;51.494;11.974;2023-10-19T12:39:37;15.02;;;11.48;;
9970;SDS011;5026;51.494;11.974;2023-10-19T12:42:10;16.75;;;12.40;;
9970;SDS011;5026;51.494;11.974;2023-10-19T12:44:39;15.50;;;12.38;;
9970;SDS011;5026;51.494;11.974;2023-10-19T12:47:06;16.63;;;12.52;;
9970;SDS011;5026;51.494;11.974;2023-10-19T12:49:38;16.10;;;11.90;;
9970;SDS011;5026;51.494;11.974;2023-10-19T12:52:05;19.77;;;13.07;;
9970;SDS011;5026;51.494;11.974;2023-10-19T12:54:35;16.48;;;12.00;;
9970;SDS011;5026;51.494;11.974;2023-10-19T12:57:02;16.30;;;12.60;;
9970;SDS011;5026;51.494;11.974;2023-10-19T12:59:32;18.13;;;13.27;;
9970;SDS011;5026;51.494;11.974;2023-10-19T13:01:59;17.77;;;13.05;;
9970;SDS011;5026;51.494;11.974;2023-10-19T13:04:28;17.05;;;11.70;;
9970;SDS011;5026;51.494;11.974;2023-10-19T13:06:56;22.45;;;13.07;;
9970;SDS011;5026;51.494;11.974;2023-10-19T13:09:24;16.95;;;12.85;;
9970;SDS011;5026;51.494;11.974;2023-10-19T13:11:58;17.90;;;13.18;;
9970;SDS011;5026;51.494;11.974;2023-10-19T13:14:25;19.10;;;13.38;;
9970;SDS011;5026;51.494;11.974;2023-10-19T13:16:52;17.88;;;12.88;;
9970;SDS011;5026;51.494;11.974;2023-10-19T13:19:20;19.98;;;13.48;;
9970;SDS011;5026;51.494;11.974;2023-10-19T13:21:49;18.27;;;13.40;;
9970;SDS011;5026;51.494;11.974;2023-10-19T13:24:17;17.30;;;12.43;;
9970;SDS011;5026;51.494;11.974;2023-10-19T13:26:46;21.60;;;14.43;;
9970;SDS011;5026;51.494;11.974;2023-10-19T13:29:14;20.55;;;14.20;;
9970;SDS011;5026;51.494;11.974;2023-10-19T13:31:42;18.83;;;14.30;;
9970;SDS011;5026;51.494;11.974;2023-10-19T13:34:14;20.20;;;14.35;;
9970;SDS011;5026;51.494;11.974;2023-10-19T13:36:41;20.70;;;14.45;;
9970;SDS011;5026;51.494;11.974;2023-10-19T13:39:10;21.65;;;15.80;;
9970;SDS011;5026;51.494;11.974;2023-10-19T13:41:38;25.58;;;15.75;;
9970;SDS011;5026;51.494;11.974;2023-10-19T13:44:05;20.70;;;14.40;;
9970;SDS011;5026;51.494;11.974;2023-10-19T13:46:33;22.08;;;15.95;;
9970;SDS011;5026;51.494;11.974;2023-10-19T13:49:00;23.05;;;16.38;;
9970;SDS011;5026;51.494;11.974;2023-10-19T13:51:30;24.25;;;16.60;;
9970;SDS011;5026;51.494;11.974;2023-10-19T13:53:58;22.50;;;14.98;;
9970;SDS011;5026;51.494;11.974;2023-10-19T13:56:25;19.98;;;15.18;;
9970;SDS011;5026;51.494;11.974;2023-10-19T13:58:52;21.10;;;15.05;;
9970;SDS011;5026;51.494;11.974;2023-10-19T14:01:19;18.75;;;14.38;;
9970;SDS011;5026;51.494;11.974;2023-10-19T14:03:52;21.80;;;14.95;;
9970;SDS011;5026;51.494;11.974;2023-10-19T14:06:21;19.95;;;14.90;;
9970;SDS011;5026;51.494;11.974;2023-10-19T14:08:50;24.33;;;15.45;;
9970;SDS011;5026;51.494;11.974;2023-10-19T14:11:17;24.70;;;15.38;;
9970;SDS011;5026;51.494;11.974;2023-10-19T14:13:44;23.52;;;16.63;;
9970;SDS011;5026;51.494;11.974;2023-10-19T14:16:11;24.42;;;17.42;;
9970;SDS011;5026;51.494;11.974;2023-10-19T14:18:38;23.27;;;15.93;;
9970;SDS011;5026;51.494;11.974;2023-10-19T14:21:13;22.50;;;15.98;;
9970;SDS011;5026;51.494;11.974;2023-10-19T14:23:41;20.73;;;15.60;;
9970;SDS011;5026;51.494;11.974;2023-10-19T14:26:09;20.75;;;15.65;;
9970;SDS011;5026;51.494;11.974;2023-10-19T14:28:36;23.40;;;16.45;;
9970;SDS011;5026;51.494;11.974;2023-10-19T14:31:05;22.13;;;16.50;;
9970;SDS011;5026;51.494;11.974;2023-10-19T14:33:32;23.73;;;16.90;;
9970;SDS011;5026;51.494;11.974;2023-10-19T14:36:00;24.17;;;17.40;;
9970;SDS011;5026;51.494;11.974;2023-10-19T14:38:30;25.98;;;18.02;;
9970;SDS011;5026;51.494;11.974;2023-10-19T14:40:58;34.55;;;25.23;;
9970;SDS011;5026;51.494;11.974;2023-10-19T14:43:25;27.75;;;18.85;;
9970;SDS011;5026;51.494;11.974;2023-10-19T14:45:54;27.70;;;19.75;;
9970;SDS011;5026;51.494;11.974;2023-10-19T14:48:22;32.13;;;19.88;;
9970;SDS011;5026;51.494;11.974;2023-10-19T14:50:49;28.83;;;19.17;;
9970;SDS011;5026;51.494;11.974;2023-10-19T14:53:19;29.77;;;19.08;;